Flight Track Log - Related Links

Times and Time Zones

All times are in EDT time to prevent confusion due to time zone crossing. See the AAL362 flight status page for this flight to view local times or setup timezone preferences in your user account.

Time Position Orientation Groundspeed Altitude Reporting Facility
EDT Latitude Longitude Course Direction KTS MPH feet Rate Location/Type
Fri 05:41:25 PM 42.0000 -87.9500 90° East 172 198 2,100  Level Chicago TRACON
Fri 05:42:25 PM 42.0333 -87.8833 56° Northeast 267 307 4,300 2,343 Climbing Chicago TRACON
Fri 05:43:00 PM 41.9552 -87.4327 95° East  Level FlightAware Approximate
Fri 05:44:00 PM 41.9445 -87.2775 96° East  Level FlightAware Approximate
Fri 05:44:14 PM 42.0114 -87.7000 99° East 301 346 8,700  Level Chicago Center
Fri 05:45:00 PM 41.9333 -87.1224 90° East  Level FlightAware Approximate
Fri 05:45:16 PM 41.9981 -87.5800 98° East 319 367 11,200  Level Chicago Center
Fri 05:46:00 PM 41.9333 -86.9665 90° East  Level FlightAware Approximate
Fri 05:46:18 PM 41.9867 -87.4569 97° East 330 380 14,000  Level Chicago Center
Fri 05:47:19 PM 41.9728 -87.3303 98° East 341 392 16,000 2,146 Climbing Chicago Center
Fri 05:48:21 PM 41.9597 -87.2006 98° East 350 403 18,400 2,032 Climbing Chicago Center
Fri 05:49:23 PM 41.9444 -87.0358 97° East 370 426 20,200 1,403 Climbing Chicago Center
Fri 05:50:25 PM 41.9483 -86.8836 88° East 403 464 21,300 1,258 Climbing Chicago Center
Fri 05:51:27 PM 41.9508 -86.7161 89° East 442 509 22,800 1,548 Climbing Chicago Center
Fri 05:52:29 PM 41.9519 -86.5597 89° East 457 526 24,500 1,645 Climbing Chicago Center
Fri 05:53:31 PM 41.9556 -86.3478 89° East 471 542 26,200 1,659 Climbing Chicago Center
Fri 05:54:32 PM 41.9531 -86.1700 91° East 477 549 27,900 1,171 Climbing Chicago Center
Fri 05:55:34 PM 41.9367 -85.9942 97° East 474 545 28,600 532 Climbing Chicago Center
Fri 05:56:36 PM 41.9186 -85.8122 98° East 489 563 29,000 629 Climbing Chicago Center
Fri 05:57:38 PM 41.9019 -85.6311 97° East 487 560 29,900 871 Climbing Chicago Center
Fri 05:58:40 PM 41.8839 -85.4514 98° East 483 556 30,800 919 Climbing Chicago Center
Fri 05:59:42 PM 41.8658 -85.2703 98° East 483 556 31,800 871 Climbing Chicago Center
Fri 06:00:44 PM 41.8481 -85.0883 97° East 487 560 32,600 581 Climbing Chicago Center
Fri 06:01:46 PM 41.8303 -84.9089 98° East 485 558 33,000 198 Climbing Chicago Center
Fri 06:02:45 PM 41.8103 -84.7206 98° East 494 568 33,000  Level Cleveland Center
Fri 06:03:45 PM 41.7914 -84.5439 98° East 483 556 33,000  Level Cleveland Center
Fri 06:04:45 PM 41.7767 -84.3647 96° East 483 556 33,000  Level Cleveland Center
Fri 06:05:45 PM 41.7742 -84.1836 91° East 483 556 33,000  Level Cleveland Center
Fri 06:06:45 PM 41.7736 -83.9997 90° East 483 556 33,000  Level Cleveland Center
Fri 06:07:45 PM 41.7725 -83.8186 90° East 483 556 33,000  Level Cleveland Center
Fri 06:08:45 PM 41.7692 -83.6319 91° East 489 563 33,000  Level Cleveland Center
Fri 06:09:45 PM 41.7594 -83.4503 94° East 494 568 33,000  Level Cleveland Center
Fri 06:10:45 PM 41.7428 -83.2717 97° East 494 568 33,000  Level Cleveland Center
Fri 06:11:45 PM 41.7258 -83.0983 97° East 480 552 33,000  Level Cleveland Center
Fri 06:12:45 PM 41.6983 -82.9303 102° East 467 537 33,000  Level Cleveland Center
Fri 06:13:45 PM 41.6447 -82.7867 117° Southeast 437 503 33,000  Level Cleveland Center
Fri 06:14:45 PM 41.5931 -82.6517 117° Southeast 418 481 33,000  Level Cleveland Center
Fri 06:15:45 PM 41.5414 -82.5139 117° Southeast 418 481 33,000  Level Cleveland Center
Fri 06:16:45 PM 41.4853 -82.3708 118° Southeast 407 468 33,000  Level Cleveland Center
Fri 06:17:45 PM 41.4353 -82.2339 116° Southeast 407 468 33,000  Level Cleveland Center
Fri 06:18:45 PM 41.3869 -82.1053 117° Southeast 402 463 33,000  Level Cleveland Center
Fri 06:19:45 PM 41.3533 -81.9606 107° East 396 456 33,000  Level Cleveland Center
Fri 06:20:45 PM 41.3617 -81.7867 86° East 431 496 33,000  Level Cleveland Center
Fri 06:21:45 PM 41.4194 -81.6242 65° Northeast 457 526 33,000  Level Cleveland Center
Fri 06:22:45 PM 41.4439 -81.4475 79° East 487 560 33,000  Level Cleveland Center
Fri 06:23:45 PM 41.4200 -81.2919 102° East 442 509 33,000  Level Cleveland Center
Fri 06:24:45 PM 41.4106 -81.1258 94° East 447 514 33,000  Level Cleveland Center
Fri 06:25:45 PM 41.4028 -80.9403 93° East 454 522 33,000  Level Cleveland Center
Fri 06:26:45 PM 41.3950 -80.7714 93° East 454 522 33,000  Level Cleveland Center
Fri 06:27:45 PM 41.3889 -80.6025 93° East 459 528 33,000  Level Cleveland Center
Fri 06:28:45 PM 41.3803 -80.4392 94° East 459 528 33,000  Level Cleveland Center
Fri 06:29:45 PM 41.3758 -80.2731 92° East 459 528 33,000  Level Cleveland Center
Fri 06:30:45 PM 41.3669 -80.1072 94° East 454 522 33,000  Level Cleveland Center
Fri 06:31:45 PM 41.3558 -79.9469 95° East 446 513 33,000  Level Cleveland Center
Fri 06:32:45 PM 41.3464 -79.7783 94° East 441 507 33,000  Level Cleveland Center
Fri 06:33:45 PM 41.3389 -79.6125 93° East 441 507 33,000  Level Cleveland Center
Fri 06:34:45 PM 41.3311 -79.4494 94° East 441 507 33,000  Level Cleveland Center
Fri 06:35:45 PM 41.3189 -79.2781 95° East 446 513 33,000  Level Cleveland Center
Fri 06:36:45 PM 41.3083 -79.1069 95° East 451 519 33,000  Level Cleveland Center
Fri 06:37:45 PM 41.2997 -78.9331 94° East 463 533 33,000  Level Cleveland Center
Fri 06:38:45 PM 41.2847 -78.7567 96° East 469 540 33,000  Level Cleveland Center
Fri 06:39:45 PM 41.2650 -78.5831 99° East 474 545 33,000  Level Cleveland Center
Fri 06:41:11 PM 41.2383 -78.3425 98° East 453 521 33,000  Level New York Center
Fri 06:42:12 PM 41.2175 -78.1747 99° East 453 521 33,000  Level New York Center
Fri 06:43:12 PM 41.1967 -78.0069 99° East 453 521 33,000 -254 Level New York Center
Fri 06:44:10 PM 41.1775 -77.8422 99° East 453 521 32,500 -958 Descending New York Center
Fri 06:45:11 PM 41.1539 -77.6742 101° East 453 521 31,100 -1,450 Descending New York Center
Fri 06:46:10 PM 41.1761 -77.5056 80° East 446 513 29,600 -1,400 Descending New York Center
Fri 06:47:11 PM 41.2417 -77.3769 56° Northeast 438 504 28,300 -1,377 Descending New York Center
Fri 06:48:12 PM 41.2989 -77.2111 65° Northeast 445 512 26,800 -1,462 Descending New York Center
Fri 06:49:10 PM 41.2683 -77.0811 107° East 402 463 25,400 -1,160 Descending New York Center
Fri 06:50:11 PM 41.2053 -76.9706 127° Southeast 361 415 24,500 -1,033 Descending New York Center
Fri 06:51:12 PM 41.1419 -76.8656 129° Southeast 361 415 23,300 -1,190 Descending New York Center
Fri 06:52:12 PM 41.0786 -76.7633 129° Southeast 361 415 22,100 -1,190 Descending New York Center
Fri 06:53:13 PM 41.0211 -76.6622 127° Southeast 354 407 20,900 -1,169 Descending New York Center
Fri 06:54:10 PM 40.9917 -76.5386 107° East 349 402 19,800 -966 Descending New York Center
Fri 06:55:11 PM 40.9644 -76.4153 106° East 349 402 19,000 -585 Descending New York Center
Fri 06:56:13 PM 40.9292 -76.2778 109° East 349 402 18,600 -1,210 Descending New York Center
Fri 06:57:10 PM 40.8975 -76.1489 108° East 354 407 16,600 -1,881 Descending New York Center
Fri 06:58:11 PM 40.8658 -76.0175 108° East 370 426 14,900 -1,650 Descending New York Center
Fri 06:59:10 PM 40.8375 -75.9028 108° East 370 426 13,300 -1,000 Descending New York Center
Fri 07:00:11 PM 40.8039 -75.7661 108° East 364 419 12,900 -197 Descending New York Center
Fri 07:01:12 PM 40.7736 -75.6403 108° East 364 419 12,900  Level New York Center
Fri 07:02:11 PM 40.7394 -75.5119 109° East 364 419 12,900 -250 Level New York Center
Fri 07:03:12 PM 40.6983 -75.3914 114° Southeast 372 428 12,400 -893 Descending New York Center
Fri 07:04:12 PM 40.6628 -75.2850 114° Southeast 353 406 11,100 -1,100 Descending New York Center
Fri 07:05:12 PM 40.6178 -75.1536 114° Southeast 353 406 10,200 -559 Descending New York Center
Fri 07:06:10 PM 40.5800 -75.0447 115° Southeast 353 406 10,000 -102 Descending New York Center
Fri 07:07:10 PM 40.5408 -74.9192 112° Southeast 358 412 10,000 56 Level New York Center
Fri 07:07:57 PM 40.5000 -74.8000 114° Southeast 361 415 10,100 56 Climbing New York TRACON
Fri 07:08:57 PM 40.4667 -74.6833 111° Southeast 355 409 10,100  Level New York TRACON
Fri 07:09:57 PM 40.4333 -74.5667 111° Southeast 353 406 10,100  Level New York TRACON
Fri 07:10:57 PM 40.4500 -74.4333 81° East 383 441 10,100  Level New York TRACON
Fri 07:11:57 PM 40.4833 -74.3000 72° East 369 425 10,100 -450 Level New York TRACON
Fri 07:12:57 PM 40.5167 -74.2000 66° East 331 381 9,200 -1,250 Descending New York TRACON
Fri 07:13:57 PM 40.5500 -74.0833 69° East 336 387 7,600 -1,700 Descending New York TRACON
Fri 07:14:57 PM 40.6333 -74.0333 24° Northeast 321 369 5,800 -1,550 Descending New York TRACON
Fri 07:15:57 PM 40.7167 -74.0167 North 314 361 4,500 -900 Descending New York TRACON
Fri 07:16:57 PM 40.8000 -74.0000 North 318 366 4,000 -250 Descending New York TRACON
Fri 07:17:57 PM 40.8500 -73.9500 37° Northeast 254 292 4,000  Level New York TRACON
Fri 07:18:57 PM 40.9167 -73.9000 30° Northeast 244 281 4,000 -150 Level New York TRACON
Fri 07:19:57 PM 40.9667 -73.8333 45° Northeast 240 276 3,700 -500 Descending New York TRACON
Fri 07:20:57 PM 40.9667 -73.7667 90° East 204 235 3,000 -350 Descending New York TRACON
Fri 07:21:57 PM 40.9333 -73.7500 159° South 149 171 3,000 -200 Level New York TRACON
Fri 07:22:57 PM 40.9000 -73.7833 217° Southwest 133 153 2,600 -500 Descending New York TRACON
Fri 07:23:57 PM 40.8667 -73.8000 201° Southwest 110 127 2,000 -600 Descending New York TRACON

Login

Don't have an account? Register now (free) for customized features, flight alerts, and more!